createdAt,value
2019-03-16T00:02:07.261Z,100109.34
2019-03-16T00:06:12.378Z,100114.78
2019-03-16T00:10:19.913Z,100125.88
2019-03-16T00:14:25.096Z,100135.55
2019-03-16T00:18:30.202Z,100163.64
2019-03-16T00:22:35.407Z,100150.78
2019-03-16T00:26:40.493Z,100153.88
2019-03-16T00:30:45.565Z,100158.93
2019-03-16T00:34:50.765Z,100157.83
2019-03-16T00:38:55.873Z,100167.41
2019-03-16T00:43:00.993Z,100164.88
2019-03-16T00:47:06.220Z,100169.39
2019-03-16T00:51:12.037Z,100156.14
2019-03-16T00:55:17.572Z,100156.60
2019-03-16T00:59:22.693Z,100159.14
2019-03-16T01:03:27.851Z,100150.50
2019-03-16T01:07:32.936Z,100154.23
2019-03-16T01:11:38.377Z,100162.87
2019-03-16T01:15:43.584Z,100172.84
2019-03-16T01:19:48.717Z,100167.77
2019-03-16T01:23:53.864Z,100172.55
2019-03-16T01:27:59.184Z,100175.52
2019-03-16T01:32:04.285Z,100173.03
2019-03-16T01:36:09.433Z,100176.52
2019-03-16T01:40:14.519Z,100160.27
2019-03-16T01:44:19.647Z,100161.42
2019-03-16T01:48:24.739Z,100157.74
2019-03-16T01:52:29.842Z,100159.91
2019-03-16T01:56:34.940Z,100156.72
2019-03-16T02:00:40.084Z,100169.09
2019-03-16T02:04:45.201Z,100167.17
2019-03-16T02:08:50.302Z,100150.89
2019-03-16T02:12:55.448Z,100158.70
2019-03-16T02:17:00.886Z,100155.70
2019-03-16T02:21:06.071Z,100137.02
2019-03-16T02:25:11.288Z,100139.66
2019-03-16T02:29:16.460Z,100127.75
2019-03-16T02:33:21.594Z,100118.09
2019-03-16T02:37:26.744Z,100118.15
2019-03-16T02:41:31.907Z,100118.20
2019-03-16T02:45:37.577Z,100103.70
2019-03-16T02:49:42.806Z,100102.77
2019-03-16T02:53:47.992Z,100102.63
2019-03-16T02:57:53.203Z,100098.92
2019-03-16T03:01:58.266Z,100093.91
2019-03-16T03:06:03.389Z,100104.48
2019-03-16T03:10:08.625Z,100094.87
2019-03-16T03:14:44.966Z,100095.49
2019-03-16T03:18:50.412Z,100100.51
2019-03-16T03:22:55.697Z,100095.83
2019-03-16T03:27:00.924Z,100091.00
2019-03-16T03:31:06.134Z,100107.02
2019-03-16T03:35:11.364Z,100099.79
2019-03-16T03:39:16.671Z,100095.77
2019-03-16T03:43:21.817Z,100102.61
2019-03-16T03:47:27.014Z,100095.30
2019-03-16T03:51:32.505Z,100101.19
2019-03-16T03:55:37.905Z,100096.41
2019-03-16T03:59:43.018Z,100090.20
2019-03-16T04:03:48.105Z,100076.25
2019-03-16T04:07:53.315Z,100076.25
2019-03-16T04:11:58.403Z,100085.64
2019-03-16T04:16:03.608Z,100085.27
2019-03-16T04:20:09.974Z,100090.78
2019-03-16T04:24:18.774Z,100090.14
2019-03-16T04:28:23.872Z,100080.19
2019-03-16T04:32:28.953Z,100093.70
2019-03-16T04:36:34.309Z,100082.15
2019-03-16T04:40:49.786Z,100085.19
2019-03-16T04:44:55.021Z,100094.16
2019-03-16T04:49:00.293Z,100089.59
2019-03-16T04:53:05.479Z,100074.74
2019-03-16T04:57:10.684Z,100077.57
2019-03-16T05:01:15.927Z,100071.44
2019-03-16T05:05:21.126Z,100071.44
2019-03-16T05:09:26.393Z,100070.21
2019-03-16T05:13:31.520Z,100070.21
2019-03-16T05:17:36.664Z,100088.23
2019-03-16T05:21:41.884Z,100048.88
2019-03-16T05:25:46.991Z,100043.13
2019-03-16T05:29:52.002Z,100060.47
2019-03-16T05:33:57.069Z,100053.77
2019-03-16T05:38:02.202Z,100055.55
2019-03-16T05:42:07.299Z,100072.37
2019-03-16T05:46:12.999Z,100046.91
2019-03-16T05:50:18.205Z,100053.27
2019-03-16T05:54:23.641Z,100050.18
2019-03-16T05:58:28.818Z,100039.10
2019-03-16T06:02:33.945Z,100054.84
2019-03-16T06:06:39.123Z,100056.95
2019-03-16T06:10:44.263Z,100058.81
2019-03-16T06:14:49.372Z,100053.83
2019-03-16T06:18:54.558Z,100051.42
2019-03-16T06:22:59.681Z,100037.96
2019-03-16T06:27:04.869Z,100045.97
2019-03-16T06:31:09.983Z,100061.22
2019-03-16T06:35:24.489Z,100053.62
2019-03-16T06:39:22.006Z,100060.00
2019-03-16T06:43:27.210Z,100057.24
2019-03-16T06:47:32.357Z,100050.17
2019-03-16T06:51:37.619Z,100056.86
2019-03-16T06:55:42.726Z,100063.78
2019-03-16T06:59:47.812Z,100047.06
2019-03-16T07:03:52.941Z,100069.52
2019-03-16T07:07:58.389Z,100042.80
2019-03-16T07:12:03.562Z,100033.58
2019-03-16T07:16:08.803Z,100043.34
2019-03-16T07:20:14.055Z,100049.38
2019-03-16T07:24:21.396Z,100065.94
2019-03-16T07:28:26.640Z,100049.75
2019-03-16T07:32:31.779Z,100086.81
2019-03-16T07:36:36.910Z,100047.97
2019-03-16T07:40:42.074Z,100033.69
2019-03-16T07:44:47.305Z,100031.41
2019-03-16T07:48:53.250Z,100028.20
2019-03-16T07:52:58.423Z,100030.94
2019-03-16T07:57:03.592Z,100049.17
2019-03-16T08:01:09.014Z,100053.97
2019-03-16T08:05:18.818Z,100032.48
2019-03-16T08:09:22.125Z,100037.85
2019-03-16T08:13:27.324Z,100063.87
2019-03-16T08:17:32.596Z,100051.82
2019-03-16T08:21:37.774Z,100049.02
2019-03-16T08:25:42.969Z,100050.70
2019-03-16T08:29:48.219Z,100052.69
2019-03-16T08:33:53.384Z,100037.73
2019-03-16T08:37:58.856Z,100048.28
2019-03-16T08:42:03.963Z,100053.44
2019-03-16T08:46:09.151Z,100066.84
2019-03-16T08:50:15.529Z,100049.13
2019-03-16T08:54:22.019Z,100060.98
2019-03-16T08:58:27.150Z,100051.70
2019-03-16T09:02:32.304Z,100053.19
2019-03-16T09:06:37.677Z,100043.43
2019-03-16T09:10:44.267Z,100025.40
2019-03-16T09:14:49.363Z,100022.19
2019-03-16T09:18:54.779Z,100003.84
2019-03-16T09:22:59.886Z,100001.18
2019-03-16T09:27:05.101Z,99995.35
2019-03-16T09:31:10.289Z,99993.48
2019-03-16T09:35:15.626Z,99982.16
2019-03-16T09:39:20.780Z,99970.09
2019-03-16T09:43:25.923Z,99997.34
2019-03-16T09:47:31.353Z,100006.81
2019-03-16T09:51:36.542Z,99984.95
2019-03-16T09:55:41.657Z,99984.36
2019-03-16T09:59:46.766Z,99970.14
2019-03-16T10:03:51.958Z,100039.31
2019-03-16T10:07:57.106Z,99987.44
2019-03-16T10:12:02.499Z,99986.83
2019-03-16T10:16:08.672Z,99972.12
2019-03-16T10:20:13.832Z,99963.01
2019-03-16T10:24:18.938Z,99964.42
2019-03-16T10:28:27.052Z,99963.78
2019-03-16T10:32:32.136Z,99965.39
2019-03-16T10:36:37.564Z,99947.34
2019-03-16T10:40:42.735Z,99947.34
2019-03-16T10:44:47.988Z,99956.78
2019-03-16T10:48:53.350Z,99944.72
2019-03-16T10:52:59.656Z,99962.05
2019-03-16T10:57:04.901Z,99968.13
2019-03-16T11:01:10.025Z,99936.06
2019-03-16T11:05:15.146Z,99970.20
2019-03-16T11:09:20.249Z,99950.13
2019-03-16T11:13:25.421Z,99943.64
2019-03-16T11:17:30.581Z,99978.39
2019-03-16T11:21:35.716Z,99957.84
2019-03-16T11:25:40.820Z,99952.19
2019-03-16T11:29:46.044Z,99965.63
2019-03-16T11:33:51.117Z,99985.12
2019-03-16T11:37:58.004Z,99941.94
2019-03-16T11:42:03.196Z,99923.39
2019-03-16T11:46:08.316Z,99931.18
2019-03-16T11:50:13.408Z,99957.32
2019-03-16T11:54:18.558Z,99932.05
2019-03-16T11:58:23.970Z,99943.97
2019-03-16T12:02:29.328Z,99936.98
2019-03-16T12:06:34.536Z,99923.81
2019-03-16T12:10:39.934Z,99931.81
2019-03-16T12:14:46.081Z,99914.55
2019-03-16T12:18:52.492Z,99930.02
2019-03-16T12:22:59.273Z,99915.41
2019-03-16T12:27:04.428Z,99918.64
2019-03-16T12:31:09.547Z,99918.64
2019-03-16T12:35:14.675Z,99905.49
2019-03-16T12:39:20.733Z,99890.03
2019-03-16T12:43:25.847Z,99925.31
2019-03-16T12:47:32.963Z,99886.21
2019-03-16T12:51:39.360Z,99885.89
2019-03-16T12:55:44.545Z,99885.89
2019-03-16T12:59:49.703Z,99871.37
2019-03-16T13:03:54.912Z,99885.56
2019-03-16T13:08:00.041Z,99869.95
2019-03-16T13:12:05.184Z,99869.37
2019-03-16T13:16:10.333Z,99869.37
2019-03-16T13:20:15.749Z,99851.84
2019-03-16T13:24:20.990Z,99853.75
2019-03-16T13:28:26.102Z,99849.42
2019-03-16T13:32:31.213Z,99868.34
2019-03-16T13:36:36.432Z,99854.77
2019-03-16T13:40:41.530Z,99841.89
2019-03-16T13:44:46.638Z,99854.61
2019-03-16T13:48:51.758Z,99850.78
2019-03-16T13:52:56.899Z,99852.25
2019-03-16T13:57:02.072Z,99834.61
2019-03-16T14:01:07.668Z,99832.13
2019-03-16T14:05:12.889Z,99899.09
2019-03-16T14:09:18.344Z,99839.41
2019-03-16T14:13:23.530Z,99821.93
2019-03-16T14:17:28.709Z,99821.09
2019-03-16T14:21:33.855Z,99805.36
2019-03-16T14:25:39.077Z,99813.48
2019-03-16T14:29:44.254Z,99814.92
2019-03-16T14:33:52.071Z,99820.92
2019-03-16T14:37:57.284Z,99803.64
2019-03-16T14:42:02.799Z,99814.33
2019-03-16T14:46:07.947Z,99819.05
2019-03-16T14:50:16.406Z,99800.45
2019-03-16T14:54:22.085Z,99802.62
2019-03-16T14:58:32.122Z,99795.58
2019-03-16T15:02:37.284Z,99795.21
2019-03-16T15:06:42.500Z,99784.41
2019-03-16T15:10:49.031Z,99759.56
2019-03-16T15:14:55.089Z,99756.28
2019-03-16T15:19:00.259Z,99745.00
2019-03-16T15:23:05.480Z,99751.72
2019-03-16T15:27:10.642Z,99756.41
2019-03-16T15:31:15.818Z,99750.91
2019-03-16T15:35:21.023Z,99720.54
2019-03-16T15:39:27.201Z,99737.83
2019-03-16T15:43:32.310Z,99720.52
2019-03-16T15:47:37.473Z,99733.84
2019-03-16T15:51:42.546Z,99712.26
2019-03-16T15:55:47.660Z,99703.37
2019-03-16T15:59:52.825Z,99692.69
2019-03-16T16:03:57.922Z,99694.84
2019-03-16T16:08:03.028Z,99691.13
2019-03-16T16:12:08.197Z,99678.64
2019-03-16T16:16:13.299Z,99681.86
2019-03-16T16:20:18.427Z,99676.36
2019-03-16T16:24:23.592Z,99650.80
2019-03-16T16:28:30.769Z,99651.01
2019-03-16T16:32:36.071Z,99653.17
2019-03-16T16:36:41.256Z,99638.55
2019-03-16T16:40:46.564Z,99642.63
2019-03-16T16:44:51.748Z,99634.20
2019-03-16T16:49:01.055Z,99645.64
2019-03-16T16:53:07.498Z,99642.73
2019-03-16T16:57:12.630Z,99621.13
2019-03-16T17:01:28.803Z,99630.02
2019-03-16T17:05:24.590Z,99634.59
2019-03-16T17:09:29.732Z,99623.64
2019-03-16T17:13:34.918Z,99625.70
2019-03-16T17:17:40.005Z,99612.02
2019-03-16T17:21:45.426Z,99615.72
2019-03-16T17:25:50.560Z,99620.16
2019-03-16T17:29:55.832Z,99613.20
2019-03-16T17:34:00.990Z,99622.33
2019-03-16T17:38:06.211Z,99597.23
2019-03-16T17:42:11.415Z,99587.52
2019-03-16T17:46:20.440Z,99582.47
2019-03-16T17:50:25.636Z,99577.08
2019-03-16T17:54:30.740Z,99571.33
2019-03-16T17:58:36.005Z,99569.05
2019-03-16T18:02:50.522Z,99571.91
2019-03-16T18:06:47.926Z,99561.49
2019-03-16T18:10:53.022Z,99555.37
2019-03-16T18:14:58.165Z,99564.96
2019-03-16T18:19:03.268Z,99561.36
2019-03-16T18:23:08.447Z,99559.80
2019-03-16T18:27:15.540Z,99551.54
2019-03-16T18:31:22.083Z,99538.22
2019-03-16T18:35:33.925Z,99538.83
2019-03-16T18:39:40.124Z,99542.88
2019-03-16T18:43:45.216Z,99543.33
2019-03-16T18:47:50.428Z,99541.17
2019-03-16T18:51:55.559Z,99545.38
2019-03-16T18:56:00.658Z,99533.86
2019-03-16T19:00:07.282Z,99532.55
2019-03-16T19:04:12.502Z,99535.42
2019-03-16T19:08:19.264Z,99525.11
2019-03-16T19:12:24.477Z,99516.27
2019-03-16T19:16:29.578Z,99510.98
2019-03-16T19:20:34.739Z,99503.43
2019-03-16T19:24:40.576Z,99513.84
2019-03-16T19:28:45.635Z,99514.11
2019-03-16T19:32:50.823Z,99503.80
2019-03-16T19:36:56.018Z,99513.27
2019-03-16T19:41:01.119Z,99507.02
2019-03-16T19:45:06.720Z,99495.86
2019-03-16T19:49:14.345Z,99490.94
2019-03-16T19:53:19.702Z,99483.64
2019-03-16T19:57:24.806Z,99477.52
2019-03-16T20:01:29.962Z,99473.45
2019-03-16T20:05:36.619Z,99473.70
2019-03-16T20:09:41.730Z,99463.02
2019-03-16T20:13:46.930Z,99453.79
2019-03-16T20:17:52.074Z,99444.91
2019-03-16T20:21:57.265Z,99434.23
2019-03-16T20:26:02.521Z,99426.45
2019-03-16T20:30:08.189Z,99417.68
2019-03-16T20:34:13.296Z,99419.61
2019-03-16T20:38:18.511Z,99414.81
2019-03-16T20:42:27.969Z,99411.20
2019-03-16T20:46:34.068Z,99392.74
2019-03-16T20:50:39.175Z,99385.61
2019-03-16T20:54:44.389Z,99374.81
2019-03-16T20:58:49.558Z,99383.33
2019-03-16T21:02:54.678Z,99378.30
2019-03-16T21:06:59.795Z,99390.89
2019-03-16T21:11:04.889Z,99387.77
2019-03-16T21:15:10.451Z,99366.69
2019-03-16T21:19:15.650Z,99360.29
2019-03-16T21:23:20.788Z,99355.98
2019-03-16T21:27:25.974Z,99343.61
2019-03-16T21:31:31.289Z,99352.85
2019-03-16T21:35:36.453Z,99352.39
2019-03-16T21:39:41.682Z,99340.39
2019-03-16T21:43:46.789Z,99352.55
2019-03-16T21:47:59.915Z,99340.04
2019-03-16T21:51:58.874Z,99338.23
2019-03-16T21:56:03.951Z,99329.23
2019-03-16T22:00:10.883Z,99321.19
2019-03-16T22:04:15.912Z,99309.44
2019-03-16T22:08:21.024Z,99293.34
2019-03-16T22:12:26.387Z,99310.27
2019-03-16T22:16:31.546Z,99296.11
2019-03-16T22:20:36.756Z,99307.89
2019-03-16T22:24:41.853Z,99304.64
2019-03-16T22:28:46.975Z,99305.80
2019-03-16T22:32:52.141Z,99304.93
2019-03-16T22:36:57.262Z,99296.69
2019-03-16T22:41:02.398Z,99278.12
2019-03-16T22:45:07.595Z,99269.45
2019-03-16T22:49:12.769Z,99260.58
2019-03-16T22:53:17.915Z,99272.80
2019-03-16T22:57:29.846Z,99240.87
2019-03-16T23:01:36.605Z,99249.31
2019-03-16T23:05:41.695Z,99253.75
2019-03-16T23:09:46.821Z,99251.69
2019-03-16T23:13:51.904Z,99248.21
2019-03-16T23:17:58.637Z,99260.66
2019-03-16T23:22:04.095Z,99243.77
2019-03-16T23:26:09.215Z,99234.80
2019-03-16T23:30:14.361Z,99245.66
2019-03-16T23:34:19.719Z,99213.06
2019-03-16T23:38:24.780Z,99230.09
2019-03-16T23:42:29.926Z,99212.09
2019-03-16T23:46:35.081Z,99199.94
2019-03-16T23:50:40.290Z,99225.73
2019-03-16T23:54:45.476Z,99194.19
2019-03-16T23:58:50.656Z,99187.72
